Time;durP1;ratioP1;P1;durP2;ratioP2;P2;SDS_P1;SDS_P2;PMS_P1;PMS_P2;Temp;Humidity;BMP_temperature;BMP_pressure;BME280_temperature;BME280_humidity;BME280_pressure;Samples;Min_cycle;Max_cycle;Signal;HPM_P1;HPM_P2
2023/03/18 00:00:42;;;;;;;7.27;2.70;;;;;;;-145.18;100.00;60484.78;5074899;28;20033;-66
2023/03/18 00:03:08;;;;;;;6.93;2.83;;;;;;;-145.18;100.00;60484.78;5074292;28;20064;-66
2023/03/18 00:05:33;;;;;;;7.27;2.70;;;;;;;-145.18;100.00;60484.78;5074918;28;20111;-66
2023/03/18 00:08:00;;;;;;;6.53;2.80;;;;;;;-145.18;100.00;60484.78;5074811;28;20036;-66
2023/03/18 00:10:26;;;;;;;5.77;2.77;;;;;;;-145.18;100.00;60484.78;5071760;28;20457;-66
2023/03/18 00:12:52;;;;;;;9.03;3.13;;;;;;;-145.18;100.00;60484.78;5074729;28;20029;-66
2023/03/18 00:15:18;;;;;;;9.33;2.90;;;;;;;-145.18;100.00;60484.78;5073869;28;20539;-66
2023/03/18 00:17:45;;;;;;;8.80;2.80;;;;;;;-145.18;100.00;60484.78;5074552;28;20043;-65
2023/03/18 00:20:12;;;;;;;8.67;2.97;;;;;;;-145.18;100.00;60484.78;5074665;28;20036;-66
2023/03/18 00:22:39;;;;;;;8.73;3.17;;;;;;;-145.18;100.00;60484.78;5074912;28;20032;-66
2023/03/18 00:25:06;;;;;;;8.57;2.80;;;;;;;-145.18;100.00;60484.78;5074821;28;20028;-65
2023/03/18 00:27:32;;;;;;;6.37;2.70;;;;;;;-145.18;100.00;60484.78;5073980;28;20054;-65
2023/03/18 00:29:58;;;;;;;9.53;3.00;;;;;;;-145.18;100.00;60484.78;5074492;28;20032;-66
2023/03/18 00:32:27;;;;;;;6.83;2.90;;;;;;;-145.18;100.00;60484.78;5073574;28;20115;-66
2023/03/18 00:34:54;;;;;;;9.03;2.93;;;;;;;-145.18;100.00;60484.78;5074289;28;20112;-66
2023/03/18 00:37:29;;;;;;;10.33;3.40;;;;;;;-145.18;100.00;60484.78;5074348;28;20029;-66
2023/03/18 00:40:07;;;;;;;7.37;3.13;;;;;;;-145.18;100.00;60484.78;5074087;28;20037;-65
2023/03/18 00:42:46;;;;;;;11.87;3.43;;;;;;;-145.18;100.00;60484.78;5060589;28;20182;-65
2023/03/18 00:45:13;;;;;;;7.90;3.30;;;;;;;-145.18;100.00;60484.78;5054201;28;20158;-66
2023/03/18 00:47:39;;;;;;;8.47;3.67;;;;;;;-145.18;100.00;60484.78;5054637;28;20436;-66
2023/03/18 00:50:07;;;;;;;8.97;3.67;;;;;;;-145.18;100.00;60484.78;5074039;28;20029;-66
2023/03/18 00:52:32;;;;;;;13.60;4.03;;;;;;;-145.18;100.00;60484.78;5073123;28;20028;-66
2023/03/18 00:54:59;;;;;;;7.77;3.63;;;;;;;-145.18;100.00;60484.78;5074235;28;20396;-65
2023/03/18 00:57:26;;;;;;;11.67;4.40;;;;;;;-145.18;100.00;60484.78;5072706;28;20031;-66
2023/03/18 00:59:51;;;;;;;12.50;4.10;;;;;;;-145.18;100.00;60484.78;5073970;28;20393;-66
2023/03/18 01:02:17;;;;;;;9.90;4.13;;;;;;;-145.18;100.00;60484.78;5073289;28;20031;-66
2023/03/18 01:04:44;;;;;;;8.80;4.40;;;;;;;-145.18;100.00;60484.78;5072923;28;20439;-66
2023/03/18 01:07:11;;;;;;;9.63;4.27;;;;;;;-145.18;100.00;60484.78;5056511;28;20040;-65
2023/03/18 01:09:39;;;;;;;9.83;4.00;;;;;;;-145.18;100.00;60484.78;5054324;28;20488;-66
2023/03/18 01:12:09;;;;;;;12.50;4.73;;;;;;;-145.18;100.00;60484.78;5053630;28;20037;-66
2023/03/18 01:14:36;;;;;;;10.37;4.50;;;;;;;-145.18;100.00;60484.78;5065651;28;20032;-66
2023/03/18 01:17:02;;;;;;;10.17;4.73;;;;;;;-145.18;100.00;60484.78;5073478;28;20465;-66
2023/03/18 01:19:28;;;;;;;10.90;4.97;;;;;;;-145.18;100.00;60484.78;5073754;28;20499;-66
2023/03/18 01:21:53;;;;;;;10.77;4.53;;;;;;;-145.18;100.00;60484.78;5067046;28;20029;-65
2023/03/18 01:24:19;;;;;;;10.47;4.57;;;;;;;-145.18;100.00;60484.78;5073646;28;20393;-66
2023/03/18 01:26:44;;;;;;;12.00;5.00;;;;;;;-145.18;100.00;60484.78;5073349;28;20024;-66
2023/03/18 01:29:10;;;;;;;10.23;4.70;;;;;;;-145.18;100.00;60484.78;5073319;28;20032;-66
2023/03/18 01:31:36;;;;;;;14.60;5.60;;;;;;;-145.18;100.00;60484.78;5072410;28;20032;-66
2023/03/18 01:34:02;;;;;;;11.57;4.97;;;;;;;-145.18;100.00;60484.78;5065656;28;20040;-66
2023/03/18 01:36:28;;;;;;;11.37;4.60;;;;;;;-145.18;100.00;60484.78;5066709;28;20388;-66
2023/03/18 01:38:56;;;;;;;11.37;4.83;;;;;;;-145.18;100.00;60484.78;5064125;28;20025;-66
2023/03/18 01:41:24;;;;;;;12.63;5.03;;;;;;;-145.18;100.00;60484.78;5071915;28;20039;-66
2023/03/18 01:43:52;;;;;;;10.77;4.97;;;;;;;-145.18;100.00;60484.78;5065276;28;20400;-66
2023/03/18 01:46:43;;;;;;;13.13;5.40;;;;;;;-145.18;100.00;60484.78;5063898;28;20020;-66
2023/03/18 01:49:43;;;;;;;10.88;5.30;;;;;;;-145.18;100.00;60484.78;5065191;28;20028;-66
2023/03/18 01:52:17;;;;;;;11.27;5.03;;;;;;;-145.18;100.00;60484.78;5051962;28;20229;-67
2023/03/18 01:54:59;;;;;;;14.17;6.07;;;;;;;-145.18;100.00;60484.78;5067489;28;20491;-66
2023/03/18 01:57:26;;;;;;;14.30;5.87;;;;;;;-145.18;100.00;60484.78;5064321;28;20500;-66
2023/03/18 01:59:53;;;;;;;10.00;5.20;;;;;;;-145.18;100.00;60484.78;5065416;28;20412;-66
2023/03/18 02:02:19;;;;;;;11.30;5.47;;;;;;;-145.18;100.00;60484.78;5065040;28;20056;-60
2023/03/18 02:04:54;;;;;;;15.70;5.33;;;;;;;-145.18;100.00;60484.78;5062119;28;20059;-60
2023/03/18 02:07:31;;;;;;;12.27;5.43;;;;;;;-145.18;100.00;60484.78;5071098;28;20106;-60
2023/03/18 02:09:59;;;;;;;10.63;5.40;;;;;;;-145.18;100.00;60484.78;5065972;28;20107;-61
2023/03/18 02:12:28;;;;;;;12.90;5.80;;;;;;;-145.18;100.00;60484.78;5071268;28;20028;-60
2023/03/18 02:14:55;;;;;;;15.10;6.70;;;;;;;-145.18;100.00;60484.78;5072520;28;20024;-61
2023/03/18 02:17:24;;;;;;;10.87;5.60;;;;;;;-145.18;100.00;60484.78;5073600;28;20025;-60
2023/03/18 02:20:28;;;;;;;11.73;5.50;;;;;;;-145.18;100.00;60484.78;5073303;28;20038;-60
2023/03/18 02:23:02;;;;;;;16.73;6.50;;;;;;;-145.18;100.00;60484.78;5001956;28;20521;-60
2023/03/18 02:25:42;;;;;;;13.97;6.10;;;;;;;-145.18;100.00;60484.78;4991824;28;20026;-61
2023/03/18 02:28:11;;;;;;;16.70;5.80;;;;;;;-145.18;100.00;60484.78;4991857;28;20053;-61
2023/03/18 02:30:45;;;;;;;15.90;6.63;;;;;;;-145.18;100.00;60484.78;5000003;28;20123;-60
2023/03/18 02:33:13;;;;;;;12.23;5.80;;;;;;;-145.18;100.00;60484.78;5000622;28;20050;-60
2023/03/18 02:35:41;;;;;;;13.47;6.17;;;;;;;-145.18;100.00;60484.78;4994740;28;20026;-61
2023/03/18 02:38:07;;;;;;;13.20;6.57;;;;;;;-145.18;100.00;60484.78;5005156;28;20065;-60
2023/03/18 02:40:38;;;;;;;12.23;6.17;;;;;;;-145.18;100.00;60484.78;4994062;28;20511;-60
2023/03/18 02:43:39;;;;;;;12.45;6.50;;;;;;;-145.18;100.00;60484.78;4993874;28;20053;-60
2023/03/18 02:47:00;;;;;;;14.43;6.87;;;;;;;-145.18;100.00;60484.78;4957132;28;20118;-61
2023/03/18 02:49:26;;;;;;;15.50;6.73;;;;;;;-145.18;100.00;60484.78;4908373;28;20040;-60
2023/03/18 02:51:52;;;;;;;15.57;6.50;;;;;;;-145.18;100.00;60484.78;4926834;29;20024;-60
2023/03/18 02:54:29;;;;;;;14.00;6.33;;;;;;;-145.18;100.00;60484.78;4912457;29;20489;-61
2023/03/18 02:56:55;;;;;;;13.63;6.43;;;;;;;-145.18;100.00;60484.78;4925174;29;20043;-60
2023/03/18 02:59:21;;;;;;;12.50;6.23;;;;;;;-145.18;100.00;60484.78;4933904;29;20508;-60
2023/03/18 03:01:50;;;;;;;10.70;5.80;;;;;;;-145.18;100.00;60484.78;4946254;29;20071;-61
2023/03/18 03:04:18;;;;;;;13.47;5.70;;;;;;;-145.18;100.00;60484.78;4942814;29;20503;-60
2023/03/18 03:06:44;;;;;;;11.83;6.23;;;;;;;-145.18;100.00;60484.78;4947675;29;20063;-61
2023/03/18 03:09:13;;;;;;;13.23;6.20;;;;;;;-145.18;100.00;60484.78;4944264;28;20048;-60
2023/03/18 03:11:39;;;;;;;12.60;6.07;;;;;;;-145.18;100.00;60484.78;4942605;29;20094;-60
2023/03/18 03:14:05;;;;;;;12.57;6.50;;;;;;;-145.18;100.00;60484.78;4943315;28;20059;-60
2023/03/18 03:16:31;;;;;;;12.77;6.90;;;;;;;-145.18;100.00;60484.78;4945286;28;20039;-61
2023/03/18 03:18:56;;;;;;;17.07;6.23;;;;;;;-145.18;100.00;60484.78;4960275;28;20151;-60
2023/03/18 03:21:22;;;;;;;18.30;7.57;;;;;;;-145.18;100.00;60484.78;5032303;28;20036;-61
2023/03/18 03:23:48;;;;;;;14.07;6.80;;;;;;;-145.18;100.00;60484.78;5032843;28;20885;-60
2023/03/18 03:26:15;;;;;;;13.47;6.13;;;;;;;-145.18;100.00;60484.78;5057938;28;20381;-60
2023/03/18 03:28:41;;;;;;;14.87;6.80;;;;;;;-145.18;100.00;60484.78;5070246;28;20032;-60
2023/03/18 03:31:08;;;;;;;14.23;6.90;;;;;;;-145.18;100.00;60484.78;5069713;28;20032;-60
2023/03/18 03:33:35;;;;;;;16.07;7.37;;;;;;;-145.18;100.00;60484.78;5070677;28;20051;-61
2023/03/18 03:36:00;;;;;;;11.50;6.90;;;;;;;-145.18;100.00;60484.78;5069466;28;20493;-60
2023/03/18 03:38:26;;;;;;;14.43;6.97;;;;;;;-145.18;100.00;60484.78;5073271;28;20104;-61
2023/03/18 03:40:52;;;;;;;16.30;7.50;;;;;;;-145.18;100.00;60484.78;5070989;28;20032;-61
2023/03/18 03:43:18;;;;;;;15.67;7.20;;;;;;;-145.18;100.00;60484.78;5070664;28;20082;-61
2023/03/18 03:45:44;;;;;;;13.30;6.93;;;;;;;-145.18;100.00;60484.78;5067493;28;20021;-60
2023/03/18 03:48:10;;;;;;;17.33;7.60;;;;;;;-145.18;100.00;60484.78;5075010;28;20443;-60
2023/03/18 03:50:36;;;;;;;14.33;7.00;;;;;;;-145.18;100.00;60484.78;5073463;28;20052;-60
2023/03/18 03:53:03;;;;;;;13.70;7.40;;;;;;;-145.18;100.00;60484.78;5073635;28;20052;-61
2023/03/18 03:55:29;;;;;;;12.60;7.60;;;;;;;-145.18;100.00;60484.78;5074851;28;20537;-60
2023/03/18 03:57:55;;;;;;;14.00;6.93;;;;;;;-145.18;100.00;60484.78;5076387;28;20025;-60
2023/03/18 04:00:22;;;;;;;14.53;7.17;;;;;;;-145.18;100.00;60484.78;5059803;28;20036;-60
2023/03/18 04:02:50;;;;;;;14.83;6.53;;;;;;;-145.18;100.00;60484.78;5072043;28;20373;-61
2023/03/18 04:05:18;;;;;;;13.00;6.77;;;;;;;-145.18;100.00;60484.78;5075034;28;20025;-60
2023/03/18 04:07:44;;;;;;;15.57;7.20;;;;;;;-145.18;100.00;60484.78;5075770;28;20028;-60
2023/03/18 04:10:13;;;;;;;20.23;7.23;;;;;;;-145.18;100.00;60484.78;5075985;28;20532;-60
2023/03/18 04:12:39;;;;;;;13.10;6.73;;;;;;;-145.18;100.00;60484.78;5074984;28;20079;-60
2023/03/18 04:15:06;;;;;;;14.03;6.73;;;;;;;-145.18;100.00;60484.78;5075693;28;20480;-60
2023/03/18 04:17:33;;;;;;;16.43;7.13;;;;;;;-145.18;100.00;60484.78;5075489;28;20040;-60
2023/03/18 04:19:59;;;;;;;12.37;6.63;;;;;;;-145.18;100.00;60484.78;5075654;28;20485;-60
2023/03/18 04:22:24;;;;;;;15.73;7.10;;;;;;;-145.18;100.00;60484.78;5075298;28;20028;-61
2023/03/18 04:24:50;;;;;;;15.17;6.77;;;;;;;-145.18;100.00;60484.78;5075507;28;20041;-61
2023/03/18 04:27:17;;;;;;;15.70;7.37;;;;;;;-145.18;100.00;60484.78;5075353;28;20107;-60
2023/03/18 04:29:43;;;;;;;16.43;6.97;;;;;;;-145.18;100.00;60484.78;5074610;28;20502;-60
2023/03/18 04:32:09;;;;;;;15.43;7.33;;;;;;;-145.18;100.00;60484.78;5075559;28;20390;-60
2023/03/18 04:34:35;;;;;;;14.90;7.70;;;;;;;-145.18;100.00;60484.78;5075299;28;20028;-61
2023/03/18 04:37:01;;;;;;;16.73;7.70;;;;;;;-145.18;100.00;60484.78;5074654;28;20490;-60
2023/03/18 04:39:27;;;;;;;16.40;8.17;;;;;;;-145.18;100.00;60484.78;5065985;28;20111;-61
2023/03/18 04:41:53;;;;;;;20.77;9.10;;;;;;;-145.18;100.00;60484.78;5066811;28;20033;-60
2023/03/18 04:44:19;;;;;;;17.50;8.07;;;;;;;-145.18;100.00;60484.78;5071703;28;20047;-60
2023/03/18 04:46:45;;;;;;;14.93;8.43;;;;;;;-145.18;100.00;60484.78;5067537;28;20029;-60
2023/03/18 04:49:10;;;;;;;14.00;8.00;;;;;;;-145.18;100.00;60484.78;5065358;28;20040;-60
2023/03/18 04:51:36;;;;;;;15.47;7.90;;;;;;;-145.18;100.00;60484.78;5065630;28;20036;-60
2023/03/18 04:54:02;;;;;;;17.93;7.97;;;;;;;-145.18;100.00;60484.78;5065232;28;20028;-61
2023/03/18 04:56:28;;;;;;;17.67;8.27;;;;;;;-145.18;100.00;60484.78;5068578;28;20055;-60
2023/03/18 04:58:53;;;;;;;16.23;8.77;;;;;;;-145.18;100.00;60484.78;5068824;28;20064;-60
2023/03/18 05:01:19;;;;;;;20.57;9.80;;;;;;;-145.18;100.00;60484.78;5065144;28;20114;-60
2023/03/18 05:03:44;;;;;;;17.37;8.40;;;;;;;-145.18;100.00;60484.78;5072572;28;20028;-61
2023/03/18 05:06:20;;;;;;;18.33;8.63;;;;;;;-145.18;100.00;60484.78;5065584;28;20024;-60
2023/03/18 05:08:46;;;;;;;18.83;8.97;;;;;;;-145.18;100.00;60484.78;5066178;28;20024;-61
2023/03/18 05:11:11;;;;;;;19.27;9.23;;;;;;;-145.18;100.00;60484.78;5065611;28;20551;-61
2023/03/18 05:13:37;;;;;;;16.17;8.20;;;;;;;-145.18;100.00;60484.78;5065623;28;20040;-60
2023/03/18 05:16:03;;;;;;;17.43;8.43;;;;;;;-145.18;100.00;60484.78;5067068;28;20583;-61
2023/03/18 05:18:29;;;;;;;17.37;8.87;;;;;;;-145.18;100.00;60484.78;5065570;28;20529;-61
2023/03/18 05:20:54;;;;;;;20.17;9.10;;;;;;;-145.18;100.00;60484.78;5065380;28;20119;-60
2023/03/18 05:23:20;;;;;;;16.30;8.93;;;;;;;-145.18;100.00;60484.78;5065768;28;20075;-60
2023/03/18 05:25:48;;;;;;;23.07;9.47;;;;;;;-145.18;100.00;60484.78;5065445;28;20041;-60
2023/03/18 05:28:13;;;;;;;19.83;9.00;;;;;;;-145.18;100.00;60484.78;5066783;28;20128;-60
2023/03/18 05:30:39;;;;;;;17.87;8.63;;;;;;;-145.18;100.00;60484.78;5068342;28;20107;-60
2023/03/18 05:33:04;;;;;;;20.37;8.63;;;;;;;-145.18;100.00;60484.78;5071004;28;20029;-60
2023/03/18 05:35:30;;;;;;;17.93;9.17;;;;;;;-145.18;100.00;60484.78;5065394;28;20476;-60
2023/03/18 05:37:56;;;;;;;19.97;9.60;;;;;;;-145.18;100.00;60484.78;5064352;28;20059;-60
2023/03/18 05:40:22;;;;;;;18.60;8.60;;;;;;;-145.18;100.00;60484.78;5064950;28;20024;-60
2023/03/18 05:42:48;;;;;;;16.97;8.50;;;;;;;-145.18;100.00;60484.78;5066584;28;20033;-61
2023/03/18 05:45:14;;;;;;;18.83;9.27;;;;;;;-145.18;100.00;60484.78;5063507;28;20632;-60
2023/03/18 05:47:39;;;;;;;16.07;9.23;;;;;;;-145.18;100.00;60484.78;5067145;28;20063;-60
2023/03/18 05:50:06;;;;;;;20.87;9.17;;;;;;;-145.18;100.00;60484.78;5064397;28;20060;-61
2023/03/18 05:52:31;;;;;;;17.47;9.70;;;;;;;-145.18;100.00;60484.78;5065121;28;20028;-61
2023/03/18 05:54:57;;;;;;;15.77;8.97;;;;;;;-145.18;100.00;60484.78;5066023;28;20032;-60
2023/03/18 05:57:22;;;;;;;20.83;9.87;;;;;;;-145.18;100.00;60484.78;5064820;28;20075;-61
2023/03/18 05:59:48;;;;;;;16.67;9.20;;;;;;;-145.18;100.00;60484.78;5062320;28;20093;-60
2023/03/18 06:02:13;;;;;;;18.50;9.63;;;;;;;-145.18;100.00;60484.78;5064654;28;20041;-60
2023/03/18 06:04:39;;;;;;;21.00;10.50;;;;;;;-145.18;100.00;60484.78;5071214;28;20039;-60
2023/03/18 06:07:05;;;;;;;18.20;9.80;;;;;;;-145.18;100.00;60484.78;5072646;28;20418;-61
2023/03/18 06:09:32;;;;;;;19.90;10.20;;;;;;;-145.18;100.00;60484.78;5073309;28;20033;-60
2023/03/18 06:11:58;;;;;;;19.03;10.90;;;;;;;-145.18;100.00;60484.78;5072310;28;20040;-61
2023/03/18 06:14:28;;;;;;;17.23;10.00;;;;;;;-145.18;100.00;60484.78;5073407;28;20029;-60
2023/03/18 06:16:54;;;;;;;20.00;8.97;;;;;;;-145.18;100.00;60484.78;5073260;28;20365;-60
2023/03/18 06:19:20;;;;;;;16.77;9.43;;;;;;;-145.18;100.00;60484.78;5073286;28;20055;-60
2023/03/18 06:21:46;;;;;;;16.97;9.17;;;;;;;-145.18;100.00;60484.78;5072835;28;20025;-60
2023/03/18 06:24:14;;;;;;;22.63;9.70;;;;;;;-145.18;100.00;60484.78;5068008;28;20501;-60
2023/03/18 06:26:40;;;;;;;16.83;10.17;;;;;;;-145.18;100.00;60484.78;5071096;28;20490;-61
2023/03/18 06:29:06;;;;;;;18.30;9.87;;;;;;;-145.18;100.00;60484.78;5071506;28;20032;-60
2023/03/18 06:31:32;;;;;;;22.77;9.43;;;;;;;-145.18;100.00;60484.78;5073097;28;20035;-60
2023/03/18 06:33:58;;;;;;;20.00;9.90;;;;;;;-145.18;100.00;60484.78;5073505;28;20044;-60
2023/03/18 06:36:23;;;;;;;20.57;10.13;;;;;;;-145.18;100.00;60484.78;5066598;28;20028;-61
2023/03/18 06:38:49;;;;;;;18.73;9.90;;;;;;;-145.18;100.00;60484.78;5064076;28;20024;-60
2023/03/18 06:41:15;;;;;;;21.67;9.70;;;;;;;-145.18;100.00;60484.78;5064535;28;20032;-60
2023/03/18 06:43:42;;;;;;;19.43;9.23;;;;;;;-145.18;100.00;60484.78;5064340;28;20495;-60
2023/03/18 06:46:07;;;;;;;18.10;9.40;;;;;;;-145.18;100.00;60484.78;5067359;28;20461;-60
2023/03/18 06:48:34;;;;;;;18.10;9.40;;;;;;;-145.18;100.00;60484.78;5064726;28;20044;-60
2023/03/18 06:51:00;;;;;;;21.60;10.00;;;;;;;-145.18;100.00;60484.78;5063865;28;20137;-60
2023/03/18 06:53:26;;;;;;;19.00;9.70;;;;;;;-145.18;100.00;60484.78;5064402;28;20197;-60
2023/03/18 06:55:52;;;;;;;20.03;9.60;;;;;;;-145.18;100.00;60484.78;5062640;28;20590;-61
2023/03/18 06:58:18;;;;;;;20.47;9.40;;;;;;;-145.18;100.00;60484.78;5064126;28;20028;-60
2023/03/18 07:00:46;;;;;;;17.50;8.80;;;;;;;-145.18;100.00;60484.78;5067952;28;20021;-60
2023/03/18 07:03:14;;;;;;;18.90;9.57;;;;;;;-145.18;100.00;60484.78;5066626;28;20107;-61
2023/03/18 07:05:41;;;;;;;19.00;9.67;;;;;;;-145.18;100.00;60484.78;5064101;28;20051;-61
2023/03/18 07:08:06;;;;;;;19.83;9.70;;;;;;;-145.18;100.00;60484.78;5064901;28;20071;-60
2023/03/18 07:10:32;;;;;;;18.80;9.63;;;;;;;-145.18;100.00;60484.78;5062454;28;20060;-61
2023/03/18 07:12:58;;;;;;;14.90;8.70;;;;;;;-145.18;100.00;60484.78;5069609;28;20112;-60
2023/03/18 07:15:25;;;;;;;32.50;11.10;;;;;;;-145.18;100.00;60484.78;5068161;28;20115;-60
2023/03/18 07:17:53;;;;;;;15.70;9.50;;;;;;;-145.18;100.00;60484.78;5060634;28;20082;-60
2023/03/18 07:20:21;;;;;;;21.40;9.97;;;;;;;-145.18;100.00;60484.78;5063420;28;20035;-61
2023/03/18 07:22:47;;;;;;;18.53;9.40;;;;;;;-145.18;100.00;60484.78;5062524;28;20028;-60
2023/03/18 07:25:13;;;;;;;21.43;9.47;;;;;;;-145.18;100.00;60484.78;5068134;28;20055;-61
2023/03/18 07:27:39;;;;;;;21.33;10.50;;;;;;;-145.18;100.00;60484.78;5061797;28;20046;-60
2023/03/18 07:30:08;;;;;;;17.53;9.83;;;;;;;-145.18;100.00;60484.78;5060932;28;20040;-60
2023/03/18 07:32:37;;;;;;;18.60;10.13;;;;;;;-145.18;100.00;60484.78;5065360;28;20028;-61
2023/03/18 07:35:04;;;;;;;20.00;9.37;;;;;;;-145.18;100.00;60484.78;5064869;28;20036;-60
2023/03/18 07:37:30;;;;;;;18.93;9.67;;;;;;;-145.18;100.00;60484.78;5072976;28;20084;-60
2023/03/18 07:39:56;;;;;;;22.00;9.20;;;;;;;-145.18;100.00;60484.78;5075184;28;20086;-61
2023/03/18 07:42:21;;;;;;;18.30;9.87;;;;;;;-145.18;100.00;60484.78;5074847;28;20024;-60
2023/03/18 07:44:47;;;;;;;19.30;9.53;;;;;;;-145.18;100.00;60484.78;5071433;28;20032;-60
2023/03/18 07:47:15;;;;;;;21.20;9.73;;;;;;;-145.18;100.00;60484.78;5070694;28;20029;-61
2023/03/18 07:49:41;;;;;;;18.70;8.83;;;;;;;-145.18;100.00;60484.78;5069876;28;20115;-61
2023/03/18 07:52:07;;;;;;;15.80;9.03;;;;;;;-145.18;100.00;60484.78;5070227;28;20086;-60
2023/03/18 07:54:33;;;;;;;21.10;10.03;;;;;;;-145.18;100.00;60484.78;5072347;28;20153;-61
2023/03/18 07:56:58;;;;;;;18.67;9.27;;;;;;;-145.18;100.00;60484.78;5065965;28;20071;-60
2023/03/18 07:59:24;;;;;;;22.00;9.07;;;;;;;-145.18;100.00;60484.78;5065163;28;20457;-61
2023/03/18 08:01:50;;;;;;;18.90;8.90;;;;;;;-145.18;100.00;60484.78;5074802;28;20032;-60
2023/03/18 08:04:16;;;;;;;15.33;7.83;;;;;;;-145.18;100.00;60484.78;5075920;28;20556;-60
2023/03/18 08:06:42;;;;;;;17.23;9.47;;;;;;;-145.18;100.00;60484.78;5068465;28;20052;-61
2023/03/18 08:09:07;;;;;;;18.30;9.37;;;;;;;-145.18;100.00;60484.78;5074664;28;20039;-61
2023/03/18 08:11:33;;;;;;;16.43;9.13;;;;;;;-145.18;100.00;60484.78;5065907;28;20085;-60
2023/03/18 08:13:59;;;;;;;23.00;9.60;;;;;;;-145.18;100.00;60484.78;5065052;28;20025;-60
2023/03/18 08:16:24;;;;;;;21.10;9.20;;;;;;;-145.18;100.00;60484.78;5067362;28;20025;-61
2023/03/18 08:18:50;;;;;;;19.00;9.17;;;;;;;-145.18;100.00;60484.78;5065022;28;20037;-60
2023/03/18 08:21:16;;;;;;;22.37;9.80;;;;;;;-145.18;100.00;60484.78;5072194;28;20099;-60
2023/03/18 08:23:41;;;;;;;19.00;9.90;;;;;;;-145.18;100.00;60484.78;5068398;28;20048;-60
2023/03/18 08:26:07;;;;;;;20.57;10.50;;;;;;;-145.18;100.00;60484.78;5062147;28;20385;-61
2023/03/18 08:28:32;;;;;;;19.30;10.53;;;;;;;-145.18;100.00;60484.78;5062606;28;20044;-60
2023/03/18 08:30:58;;;;;;;19.43;10.50;;;;;;;-145.18;100.00;60484.78;5072127;28;20104;-60
2023/03/18 08:33:25;;;;;;;21.40;10.60;;;;;;;-145.18;100.00;60484.78;5075249;28;20020;-60
2023/03/18 08:35:51;;;;;;;18.40;9.83;;;;;;;-145.18;100.00;60484.78;5075125;28;20028;-61
2023/03/18 08:38:17;;;;;;;18.80;10.23;;;;;;;-145.18;100.00;60484.78;5075091;28;20036;-60
2023/03/18 08:40:42;;;;;;;17.30;10.07;;;;;;;-145.18;100.00;60484.78;5074215;28;20048;-61
2023/03/18 08:43:08;;;;;;;25.03;10.27;;;;;;;-145.18;100.00;60484.78;5074284;28;20029;-60
2023/03/18 08:45:37;;;;;;;23.83;11.60;;;;;;;-145.18;100.00;60484.78;5073588;28;20476;-60
2023/03/18 08:48:02;;;;;;;19.17;10.00;;;;;;;-145.18;100.00;60484.78;5071441;28;20499;-60
2023/03/18 08:50:28;;;;;;;19.47;10.50;;;;;;;-145.18;100.00;60484.78;5074332;28;20025;-61
2023/03/18 08:52:58;;;;;;;15.80;9.63;;;;;;;-145.18;100.00;60484.78;5074850;28;20528;-60
2023/03/18 08:55:33;;;;;;;16.38;10.35;;;;;;;-145.18;100.00;60484.78;5071467;28;20024;-61
2023/03/18 08:57:59;;;;;;;22.40;10.73;;;;;;;-145.18;100.00;60484.78;5074915;28;20040;-60
2023/03/18 09:00:25;;;;;;;17.73;9.70;;;;;;;-145.18;100.00;60484.78;5072875;28;20024;-60
2023/03/18 09:02:51;;;;;;;18.13;10.68;;;;;;;-145.18;100.00;60484.78;5073606;28;20032;-61
2023/03/18 09:05:17;;;;;;;18.95;10.57;;;;;;;-145.18;100.00;60484.78;5073828;28;20037;-61
2023/03/18 09:07:44;;;;;;;19.35;10.45;;;;;;;-145.18;100.00;60484.78;5074822;28;20025;-60
2023/03/18 09:10:11;;;;;;;21.77;10.77;;;;;;;-145.18;100.00;60484.78;5073592;28;20055;-60
2023/03/18 09:12:38;;;;;;;23.17;10.63;;;;;;;-145.18;100.00;60484.78;5055627;28;20025;-60
2023/03/18 09:15:05;;;;;;;18.70;9.98;;;;;;;-145.18;100.00;60484.78;5059279;28;20030;-60
2023/03/18 09:17:30;;;;;;;17.42;10.77;;;;;;;-145.18;100.00;60484.78;5072245;28;20400;-60
2023/03/18 09:19:56;;;;;;;24.20;11.15;;;;;;;-145.18;100.00;60484.78;5074278;28;20029;-60
2023/03/18 09:22:22;;;;;;;20.77;11.32;;;;;;;-145.18;100.00;60484.78;5073765;28;20066;-60
2023/03/18 09:24:48;;;;;;;19.60;10.88;;;;;;;-145.18;100.00;60484.78;5074269;28;20112;-60
2023/03/18 09:27:13;;;;;;;22.25;11.25;;;;;;;-145.18;100.00;60484.78;5073548;28;20040;-60
2023/03/18 09:29:39;;;;;;;17.73;10.63;;;;;;;-145.18;100.00;60484.78;5073735;28;20032;-60
2023/03/18 09:32:05;;;;;;;20.02;10.85;;;;;;;-145.18;100.00;60484.78;5073355;28;20025;-60
2023/03/18 09:34:30;;;;;;;19.67;11.32;;;;;;;-145.18;100.00;60484.78;5074196;28;20029;-60
2023/03/18 09:36:56;;;;;;;19.38;11.73;;;;;;;-145.18;100.00;60484.78;5073348;28;20074;-60
2023/03/18 09:39:22;;;;;;;25.25;11.77;;;;;;;-145.18;100.00;60484.78;5074011;28;20028;-61
2023/03/18 09:42:28;;;;;;;20.10;11.48;;;;;;;-145.18;100.00;60484.78;5073865;28;20384;-60
2023/03/18 09:44:58;;;;;;;20.80;11.82;;;;;;;-145.18;100.00;60484.78;5031464;28;20563;-60
2023/03/18 09:48:13;;;;;;;22.02;11.45;;;;;;;-145.18;100.00;60484.78;5029834;28;20049;-60
2023/03/18 09:51:15;;;;;;;23.85;11.25;;;;;;;-145.18;100.00;60484.78;5004623;28;20630;-59
2023/03/18 09:53:57;;;;;;;22.90;12.10;;;;;;;-145.18;100.00;60484.78;5031761;28;20033;-61
2023/03/18 09:56:26;;;;;;;23.05;12.02;;;;;;;-145.18;100.00;60484.78;5030971;28;20437;-60
2023/03/18 09:59:11;;;;;;;18.70;11.07;;;;;;;-145.18;100.00;60484.78;5030911;28;20057;-60
2023/03/18 10:01:38;;;;;;;19.83;11.23;;;;;;;-145.18;100.00;60484.78;5029901;28;20030;-60
2023/03/18 10:04:42;;;;;;;22.60;11.95;;;;;;;-145.18;100.00;60484.78;5031447;28;20033;-60
2023/03/18 10:07:16;;;;;;;21.08;11.02;;;;;;;-145.18;100.00;60484.78;5018094;28;20048;-60
2023/03/18 10:09:45;;;;;;;17.67;10.10;;;;;;;-145.18;100.00;60484.78;5031329;28;20029;-60
2023/03/18 10:12:30;;;;;;;19.88;10.52;;;;;;;-145.18;100.00;60484.78;5031214;28;20100;-60
2023/03/18 10:15:10;;;;;;;18.55;10.65;;;;;;;-145.18;100.00;60484.78;5030932;28;20042;-60
2023/03/18 10:18:09;;;;;;;18.73;10.05;;;;;;;-145.18;100.00;60484.78;5027363;28;20062;-60
2023/03/18 10:21:11;;;;;;;18.10;10.68;;;;;;;-145.18;100.00;60484.78;5012092;28;20065;-60
2023/03/18 10:24:06;;;;;;;18.15;10.43;;;;;;;-145.18;100.00;60484.78;5031032;28;20037;-60
2023/03/18 10:27:02;;;;;;;20.85;10.50;;;;;;;-145.18;100.00;60484.78;4950738;28;20448;-60
2023/03/18 10:30:02;;;;;;;19.95;10.50;;;;;;;-145.18;100.00;60484.78;4937765;28;20046;-60
2023/03/18 10:32:58;;;;;;;19.35;10.70;;;;;;;-145.18;100.00;60484.78;4950710;28;20508;-60
2023/03/18 10:35:53;;;;;;;18.42;10.68;;;;;;;-145.18;100.00;60484.78;4939533;29;20399;-60
2023/03/18 10:38:38;;;;;;;16.15;9.73;;;;;;;-145.18;100.00;60484.78;4951797;28;20062;-60
2023/03/18 10:41:24;;;;;;;21.17;10.43;;;;;;;-145.18;100.00;60484.78;4952970;29;20046;-60
2023/03/18 10:43:54;;;;;;;16.40;9.60;;;;;;;-145.18;100.00;60484.78;4952970;29;20853;-60
2023/03/18 10:46:21;;;;;;;18.77;10.50;;;;;;;-145.18;100.00;60484.78;4950781;28;20091;-60
2023/03/18 10:48:54;;;;;;;18.45;10.20;;;;;;;-145.18;100.00;60484.78;4952900;29;20039;-60
2023/03/18 10:51:53;;;;;;;18.95;10.68;;;;;;;-145.18;100.00;60484.78;4951861;29;20118;-60
2023/03/18 10:54:39;;;;;;;19.85;10.27;;;;;;;-145.18;100.00;60484.78;4952889;29;20039;-60
2023/03/18 10:57:05;;;;;;;18.00;9.70;;;;;;;-145.18;100.00;60484.78;4951497;28;20540;-60
2023/03/18 10:59:33;;;;;;;20.30;10.90;;;;;;;-145.18;100.00;60484.78;5002428;28;20052;-60
2023/03/18 11:02:03;;;;;;;16.02;10.65;;;;;;;-145.18;100.00;60484.78;5069248;28;20434;-59
2023/03/18 11:04:35;;;;;;;19.15;10.95;;;;;;;-145.18;100.00;60484.78;5073116;28;20385;-59
2023/03/18 11:09:38;;;;;;;19.77;11.55;;;;;;;-145.18;100.00;60484.78;5072814;28;20035;-59
2023/03/18 11:12:15;;;;;;;17.75;10.77;;;;;;;-145.18;100.00;60484.78;5076128;28;20029;-60